KFRR/FRR METAR and TAF weather

Enter ICAO airport designator
Station Type Date Time Source
KFRR METAR 2019/04/18 14:35 UTC NOAA

KFRR 181435Z AUTO 17004KT 10SM OVC100 15/10 A3000 RMK AO1


Station Type Date Time Source
KFRR Decoded METAR 2019/04/18 14:35 UTC NOAA

Station name not available
Apr 18, 2019 - 10:35 AM EDT / 2019.04.18 1435 UTC
Wind: from the S (170 degrees) at 5 MPH (4 KT):0
Visibility: 10 mile(s):0
Sky conditions: overcast
Temperature: 59 F (15 C)
Dew Point: 50 F (10 C)
Relative Humidity: 72%
Pressure (altimeter): 30 in. Hg (1015 hPa)
ob: KFRR 181435Z AUTO 17004KT 10SM OVC100 15/10 A3000 RMK AO1
cycle: 14

Station Type Date Time Source
KFRR TAF UTC NOAA

Error!

Example: see airport list